Washington, DC

6:12 PM EST on February 27, 2015 (GMT -0500)
Eckington Pl, NE | Change Station
CLOSE
Current Station
Personal Weather Station
Location: Washington, DC
Elevation: 90 ft
Nearby Weather Stations

Elev 90 ft 38.91 °N, 77.01 °W | Updated 4 minutes ago

Clear
Clear
31.3 °F
Feels Like 27 °F
N
4.0
Wind Variable Wind from WNW
Gusts 9.0 mph

Today
High -- | Low -- °F
--% Chance of Precip.
Yesterday
High -- | Low -- °F
Precip. -- in
6:43 AM 5:58 PM
Waxing Gibbous, 72% visible
Pressure 30.52 in
Visibility 10.0 miles
Clouds Few 10000 ft
Windchill 27 °F
Dew Point 11 °F
Humidity 42%
Rainfall -999.00 in
Snow Depth Not available.
UV 0 out of 12
Pollen 1.60 out of 12
Air Quality Not available.
Flu Activity Not available.
METAR KDCA 272252Z 34011KT 10SM FEW100 00/M13 A3052 RMK AO2 SLP335 T00001128

More Conditions Fewer Conditions

Pressure 30.52 in
Visibility 10.0 miles
Clouds Few 10000 ft
Windchill 27 °F
Dew Point 11 °F
Humidity 42%
Rainfall -999.00 in
Snow Depth Not available.
UV 0 out of 12
Pollen 1.60 out of 12
Air Quality Not available.
Flu Activity Not available.
METAR KDCA 272252Z 34011KT 10SM FEW100 00/M13 A3052 RMK AO2 SLP335 T00001128

More Conditions Fewer Conditions

10-Day Weather Forecast

Almanac

Astronomy

Feb. 27, 2015 Rise Set
Actual Time
Civil Twilight
Nautical Twilight
Astronomical Twilight
Moon
Length of Visible Light
Length of Day
Tomorrow will be .
, % of the Moon is Illuminated

Today's Extremes

State Highs State Lows

Community

WunderPhotos

Upload Photos

1,800,874 photos uploaded!

WunderBlogs® & News

Nearby

Air Quality

  Air Quality AQ Index Pollutant
Not available.

Snow Depth

Station Depth Elevation

Earthquake Activity

City Distance Mag. Time & Date
Minimum magnitude displayed is 2.5.

Coastal Water Temperatures

Place Temperature

Nearby Weather Stations